Terminal Aerodrome Forecast
Issued by NWS Upton, NY

Current Version | Previous Version | Text Only | Print | Product List | Glossary On
Versions: 1 2 3 4 5 6 7 8 9 10 11 12 13 14 15 16 17 18 19 20 21 22 23 24 25 26 27 28 29 30 31 32 33 34 35 36 37 38
000 FTUS41 KOKX 251531 AAB TAFJFK TAF AMD KJFK 251531Z 2516/2618 10016G21KT 4SM SHRA BR OVC003 FM251800 08012KT 3SM -SHRA BR OVC006 FM252300 VRB05KT 1/2SM -SHRA FG OVC004 FM260700 28007KT 3SM BR SCT007 OVC015 FM261000 29012KT P6SM FEW010 BKN025 FM261200 28015KT P6SM SCT100=

USA.gov is the U.S. government's official web portal to all federal, state and local government web resources and services.